Time;durP1;ratioP1;P1;durP2;ratioP2;P2;SDS_P1;SDS_P2;PMS_P1;PMS_P2;Temp;Humidity;BMP_temperature;BMP_pressure;BME280_temperature;BME280_humidity;BME280_pressure;Samples;Min_cycle;Max_cycle;Signal;HPM_P1;HPM_P2
2022/10/21 00:00:19;;;;;;;52.30;27.00;;;4.70;99.90;;;;;;5070268;28;20448;-58
2022/10/21 00:02:45;;;;;;;48.50;26.10;;;4.70;99.90;;;;;;5070112;28;20894;-59
2022/10/21 00:05:10;;;;;;;50.45;26.77;;;4.70;99.90;;;;;;5052011;28;20575;-59
2022/10/21 00:07:36;;;;;;;46.53;27.30;;;4.60;99.90;;;;;;5070183;28;20103;-59
2022/10/21 00:10:03;;;;;;;51.22;29.13;;;4.70;99.90;;;;;;5069949;28;20114;-60
2022/10/21 00:12:29;;;;;;;54.35;28.83;;;4.70;99.90;;;;;;5069970;28;20024;-59
2022/10/21 00:14:55;;;;;;;51.88;27.23;;;4.70;99.90;;;;;;5070023;28;20440;-60
2022/10/21 00:17:21;;;;;;;50.53;27.67;;;4.70;99.90;;;;;;5069719;28;20518;-60
2022/10/21 00:19:46;;;;;;;46.10;25.00;;;4.70;99.90;;;;;;5069946;28;20021;-60
2022/10/21 00:22:12;;;;;;;51.15;25.48;;;4.70;99.90;;;;;;5069850;28;20037;-59
2022/10/21 00:24:38;;;;;;;45.72;26.35;;;4.70;99.90;;;;;;5069913;28;20029;-59
2022/10/21 00:27:03;;;;;;;45.05;26.70;;;4.70;99.90;;;;;;5059294;28;20433;-61
2022/10/21 00:29:29;;;;;;;50.13;27.27;;;4.60;99.90;;;;;;5049807;28;20635;-62
2022/10/21 00:31:55;;;;;;;54.28;27.15;;;4.60;99.90;;;;;;5049594;28;20033;-59
2022/10/21 00:34:21;;;;;;;52.25;28.80;;;4.60;99.90;;;;;;5049683;28;20028;-58
2022/10/21 00:36:46;;;;;;;58.70;30.13;;;4.50;99.90;;;;;;5049604;28;20476;-61
2022/10/21 00:39:12;;;;;;;59.63;29.17;;;4.40;99.90;;;;;;5052760;28;20040;-60
2022/10/21 00:41:38;;;;;;;66.15;30.13;;;4.40;99.90;;;;;;5053960;28;20021;-60
2022/10/21 00:44:13;;;;;;;57.25;31.20;;;4.30;99.90;;;;;;5053791;28;20029;-62
2022/10/21 00:46:55;;;;;;;55.92;29.25;;;4.20;99.90;;;;;;5053748;28;20017;-59
2022/10/21 00:49:29;;;;;;;54.05;29.40;;;4.30;99.90;;;;;;5053739;28;20090;-59
2022/10/21 00:51:59;;;;;;;57.55;30.60;;;4.20;99.90;;;;;;5053585;28;20134;-60
2022/10/21 00:54:25;;;;;;;60.75;30.90;;;4.00;99.90;;;;;;5053501;28;20106;-59
2022/10/21 00:56:54;;;;;;;58.10;29.40;;;3.80;99.90;;;;;;5053494;28;20082;-58
2022/10/21 00:59:23;;;;;;;54.13;29.75;;;3.90;99.90;;;;;;5053460;28;20789;-60
2022/10/21 01:01:49;;;;;;;66.70;31.33;;;3.90;99.90;;;;;;5053453;28;20104;-61
2022/10/21 01:04:15;;;;;;;62.08;32.08;;;3.90;99.90;;;;;;5053498;28;20178;-60
2022/10/21 01:06:42;;;;;;;65.45;33.67;;;3.80;99.90;;;;;;5053204;28;20673;-57
2022/10/21 01:09:08;;;;;;;62.83;30.67;;;3.80;99.90;;;;;;5053557;28;20060;-60
2022/10/21 01:11:41;;;;;;;57.77;30.90;;;3.70;99.90;;;;;;5053092;28;20077;-59
2022/10/21 01:14:18;;;;;;;63.03;34.20;;;3.70;99.90;;;;;;5060076;28;20332;-60
2022/10/21 01:16:53;;;;;;;67.00;34.15;;;3.70;99.90;;;;;;5054906;28;20143;-60
2022/10/21 01:19:48;;;;;;;74.80;33.08;;;3.60;99.90;;;;;;5063708;28;20375;-59
2022/10/21 01:22:51;;;;;;;67.22;33.92;;;3.50;99.90;;;;;;5064366;28;20032;-61
2022/10/21 01:25:54;;;;;;;57.30;32.50;;;3.50;99.90;;;;;;5072152;28;20036;-60
2022/10/21 01:28:57;;;;;;;67.57;34.60;;;3.40;99.90;;;;;;5061760;28;20029;-58
2022/10/21 01:31:44;;;;;;;62.95;34.33;;;3.40;99.90;;;;;;5062625;28;20033;-58
2022/10/21 01:34:34;;;;;;;61.05;34.13;;;3.40;99.90;;;;;;5068942;28;20032;-59
2022/10/21 01:37:30;;;;;;;58.05;34.33;;;3.40;99.90;;;;;;5072908;28;20036;-59
2022/10/21 01:40:01;;;;;;;55.10;32.63;;;3.40;99.90;;;;;;5071702;28;20040;-59
2022/10/21 01:42:44;;;;;;;61.55;34.25;;;3.50;99.90;;;;;;5054984;28;20490;-60
2022/10/21 01:45:27;;;;;;;54.90;31.20;;;3.50;99.90;;;;;;5072536;28;20515;-61
2022/10/21 01:47:56;;;;;;;53.92;31.08;;;3.40;99.90;;;;;;5072320;28;20028;-59
2022/10/21 01:50:26;;;;;;;50.50;30.48;;;3.40;99.90;;;;;;5071100;28;20040;-59
2022/10/21 01:52:56;;;;;;;56.70;30.65;;;3.40;99.90;;;;;;5072324;28;20539;-58
2022/10/21 01:55:27;;;;;;;48.67;29.63;;;3.40;99.90;;;;;;5071957;28;20036;-58
2022/10/21 01:58:00;;;;;;;50.92;26.95;;;3.40;99.90;;;;;;5071735;28;20035;-58
2022/10/21 02:00:27;;;;;;;51.35;27.17;;;3.30;99.90;;;;;;5070218;28;20035;-60
2022/10/21 02:02:52;;;;;;;51.90;27.75;;;3.30;99.90;;;;;;5070310;28;20040;-60
2022/10/21 02:05:21;;;;;;;52.85;27.88;;;3.30;99.90;;;;;;5052376;28;20078;-61
2022/10/21 02:07:48;;;;;;;52.22;28.98;;;3.10;99.90;;;;;;5070428;28;20487;-59
2022/10/21 02:10:14;;;;;;;56.07;30.77;;;3.10;99.90;;;;;;5069871;28;20036;-59
2022/10/21 02:12:43;;;;;;;53.28;30.20;;;3.10;99.90;;;;;;5068553;28;20028;-59
2022/10/21 02:15:11;;;;;;;57.50;31.38;;;3.10;99.90;;;;;;5070330;28;20033;-60
2022/10/21 02:17:39;;;;;;;50.35;29.40;;;3.10;99.90;;;;;;5070141;28;20034;-59
2022/10/21 02:20:08;;;;;;;59.33;30.40;;;3.10;99.90;;;;;;5070019;28;20028;-59
2022/10/21 02:22:35;;;;;;;58.30;29.60;;;3.10;99.90;;;;;;5070017;28;20644;-58
2022/10/21 02:25:07;;;;;;;58.97;32.70;;;3.10;99.90;;;;;;5070525;28;20044;-59
2022/10/21 02:27:33;;;;;;;57.58;30.90;;;3.10;99.90;;;;;;5067860;28;20032;-59
2022/10/21 02:29:59;;;;;;;57.40;29.00;;;3.10;99.90;;;;;;5051746;28;20067;-60
2022/10/21 02:32:48;;;;;;;53.60;30.63;;;3.10;99.90;;;;;;5054923;28;20027;-59
2022/10/21 02:35:20;;;;;;;55.35;30.50;;;3.10;99.90;;;;;;5072001;28;20121;-59
2022/10/21 02:37:52;;;;;;;64.40;32.53;;;3.10;99.90;;;;;;5071561;28;20025;-59
2022/10/21 02:40:33;;;;;;;63.03;34.13;;;3.00;99.90;;;;;;5071680;28;20035;-60
2022/10/21 02:43:06;;;;;;;68.55;35.75;;;3.00;99.90;;;;;;5071316;28;20020;-60
2022/10/21 02:45:33;;;;;;;79.18;43.15;;;3.10;99.90;;;;;;5071388;28;20678;-59
2022/10/21 02:47:59;;;;;;;88.90;47.05;;;2.90;99.90;;;;;;5071274;28;20048;-60
2022/10/21 02:50:24;;;;;;;95.45;47.45;;;2.90;99.90;;;;;;5071248;28;20098;-59
2022/10/21 02:52:50;;;;;;;94.13;49.85;;;2.90;99.90;;;;;;5068811;28;20041;-58
2022/10/21 02:55:16;;;;;;;88.15;46.97;;;2.90;99.90;;;;;;5051545;28;20029;-58
2022/10/21 02:57:41;;;;;;;76.00;41.58;;;2.80;99.90;;;;;;5064840;28;20613;-60
2022/10/21 03:00:08;;;;;;;67.25;36.13;;;2.70;99.90;;;;;;5066487;28;20056;-60
2022/10/21 03:02:33;;;;;;;62.67;32.73;;;2.60;99.90;;;;;;5050890;28;20021;-59
2022/10/21 03:04:59;;;;;;;59.65;33.72;;;2.60;99.90;;;;;;5058799;28;20032;-58
2022/10/21 03:07:25;;;;;;;60.33;31.13;;;2.50;99.90;;;;;;5059088;28;20067;-60
2022/10/21 03:09:50;;;;;;;55.28;31.25;;;2.50;99.90;;;;;;5069506;28;20430;-60
2022/10/21 03:12:16;;;;;;;55.00;30.83;;;2.60;99.90;;;;;;5069657;28;20051;-58
2022/10/21 03:14:42;;;;;;;52.42;30.27;;;2.60;99.90;;;;;;5053217;28;20029;-59
2022/10/21 03:17:07;;;;;;;50.85;29.33;;;2.50;99.90;;;;;;5050947;28;20112;-60
2022/10/21 03:19:33;;;;;;;54.22;30.70;;;2.60;99.90;;;;;;5050447;28;20476;-59
2022/10/21 03:21:58;;;;;;;55.50;30.38;;;2.70;99.90;;;;;;5050840;28;20084;-59
2022/10/21 03:24:24;;;;;;;61.90;29.60;;;2.70;99.90;;;;;;5050615;28;20033;-59
2022/10/21 03:26:50;;;;;;;61.10;30.65;;;2.60;99.90;;;;;;5064903;28;20059;-60
2022/10/21 03:29:15;;;;;;;68.90;33.65;;;2.50;99.90;;;;;;5070263;28;20159;-59
2022/10/21 03:31:41;;;;;;;67.68;34.65;;;2.50;99.90;;;;;;5070516;28;20144;-59
2022/10/21 03:34:06;;;;;;;75.53;34.15;;;2.50;99.90;;;;;;5070115;28;20035;-59
2022/10/21 03:36:32;;;;;;;71.10;37.05;;;2.60;99.90;;;;;;5052259;28;20434;-60
2022/10/21 03:38:58;;;;;;;72.97;37.92;;;2.50;99.90;;;;;;5070392;28;20074;-58
2022/10/21 03:41:23;;;;;;;67.72;37.10;;;2.50;99.90;;;;;;5070139;28;20029;-59
2022/10/21 03:43:49;;;;;;;77.80;38.97;;;2.60;99.90;;;;;;5070106;28;20021;-59
2022/10/21 03:46:14;;;;;;;75.68;40.08;;;2.60;99.90;;;;;;5070202;28;20052;-59
2022/10/21 03:48:40;;;;;;;80.20;41.55;;;2.60;99.90;;;;;;5051872;28;20081;-58
2022/10/21 03:51:05;;;;;;;68.80;38.03;;;2.70;99.90;;;;;;5070185;28;20128;-58
2022/10/21 03:53:34;;;;;;;65.90;36.90;;;2.70;99.90;;;;;;5070133;28;20108;-59
2022/10/21 03:55:59;;;;;;;67.80;36.55;;;2.80;99.90;;;;;;5069903;28;20395;-58
2022/10/21 03:58:27;;;;;;;69.43;37.00;;;2.80;99.90;;;;;;5069990;28;20036;-58
2022/10/21 04:00:53;;;;;;;75.38;37.15;;;2.70;99.90;;;;;;5059376;28;20028;-59
2022/10/21 04:03:19;;;;;;;68.15;35.80;;;2.70;99.90;;;;;;5049813;28;20476;-57
2022/10/21 04:05:45;;;;;;;80.35;39.30;;;2.60;99.90;;;;;;5049865;28;20060;-58
2022/10/21 04:08:10;;;;;;;75.78;38.10;;;2.70;99.90;;;;;;5049988;28;20543;-58
2022/10/21 04:10:36;;;;;;;81.80;40.15;;;2.70;99.90;;;;;;5049999;28;20124;-60
2022/10/21 04:13:02;;;;;;;73.90;39.63;;;2.60;99.90;;;;;;5049265;28;20033;-61
2022/10/21 04:15:27;;;;;;;84.63;41.05;;;2.70;99.90;;;;;;5049736;28;20029;-59
2022/10/21 04:17:53;;;;;;;74.57;38.42;;;2.70;99.90;;;;;;5049735;28;20021;-59
2022/10/21 04:20:19;;;;;;;79.70;38.55;;;2.60;99.90;;;;;;5050036;28;20028;-58
2022/10/21 04:22:45;;;;;;;69.43;36.25;;;2.60;99.90;;;;;;5049889;28;20380;-58
2022/10/21 04:25:10;;;;;;;68.22;37.97;;;2.60;99.90;;;;;;5049831;28;20017;-59
2022/10/21 04:27:36;;;;;;;70.40;38.42;;;2.50;99.90;;;;;;5049604;28;20025;-59
2022/10/21 04:30:01;;;;;;;68.05;39.28;;;2.60;99.90;;;;;;5049515;28;20028;-59
2022/10/21 04:32:27;;;;;;;65.88;37.75;;;2.60;99.90;;;;;;5049514;28;20512;-59
2022/10/21 04:34:53;;;;;;;77.38;41.40;;;2.60;99.90;;;;;;5049782;28;20036;-58
2022/10/21 04:37:18;;;;;;;73.68;42.58;;;2.60;99.90;;;;;;5049594;28;20047;-60
2022/10/21 04:39:44;;;;;;;74.65;45.80;;;2.60;99.90;;;;;;5049604;28;20021;-60
2022/10/21 04:42:10;;;;;;;79.95;43.25;;;2.70;99.90;;;;;;5049683;28;20032;-58
2022/10/21 04:44:38;;;;;;;77.70;46.35;;;2.60;99.90;;;;;;5049549;28;20424;-58
2022/10/21 04:47:04;;;;;;;86.25;49.90;;;2.70;99.90;;;;;;5049343;28;20052;-60
2022/10/21 04:49:29;;;;;;;81.70;49.63;;;2.60;99.90;;;;;;5049306;28;20159;-60
2022/10/21 04:51:55;;;;;;;74.70;46.53;;;2.60;99.90;;;;;;5049598;28;20452;-60
2022/10/21 04:54:21;;;;;;;77.35;48.25;;;2.60;99.90;;;;;;5049721;28;20499;-58
2022/10/21 04:56:46;;;;;;;72.15;44.70;;;2.60;99.90;;;;;;5049378;28;20025;-59
2022/10/21 04:59:12;;;;;;;81.95;45.30;;;2.60;99.90;;;;;;5049333;28;20044;-58
2022/10/21 05:01:38;;;;;;;73.13;43.67;;;2.60;99.90;;;;;;5065887;28;20361;-59
2022/10/21 05:04:04;;;;;;;66.35;40.90;;;2.60;99.90;;;;;;5069560;28;20107;-58
2022/10/21 05:06:29;;;;;;;62.92;36.72;;;2.60;99.90;;;;;;5068979;28;20123;-58
2022/10/21 05:08:55;;;;;;;64.18;38.72;;;2.60;99.90;;;;;;5051186;28;20032;-60
2022/10/21 05:11:21;;;;;;;57.45;35.00;;;2.50;99.90;;;;;;5069088;28;20029;-58
2022/10/21 05:13:47;;;;;;;62.85;36.83;;;2.50;99.90;;;;;;5068986;28;20025;-58
2022/10/21 05:16:12;;;;;;;56.78;34.97;;;2.40;99.90;;;;;;5069114;28;20029;-58
2022/10/21 05:18:38;;;;;;;62.05;35.22;;;2.50;99.90;;;;;;5069326;28;20048;-58
2022/10/21 05:21:04;;;;;;;62.70;34.08;;;2.50;99.90;;;;;;5069031;28;20498;-60
2022/10/21 05:23:30;;;;;;;67.82;36.65;;;2.40;99.90;;;;;;5068965;28;20029;-58
2022/10/21 05:25:55;;;;;;;65.18;37.35;;;2.20;99.90;;;;;;5054716;28;20498;-59
2022/10/21 05:28:21;;;;;;;72.90;38.72;;;2.10;99.90;;;;;;5072764;28;20028;-58
2022/10/21 05:30:47;;;;;;;70.18;41.00;;;2.10;99.90;;;;;;5072450;28;20032;-60
2022/10/21 05:33:13;;;;;;;67.90;39.13;;;2.10;99.90;;;;;;5072689;28;20032;-59
2022/10/21 05:35:38;;;;;;;68.25;40.88;;;2.20;99.90;;;;;;5072643;28;20028;-58
2022/10/21 05:38:04;;;;;;;74.43;40.65;;;2.30;99.90;;;;;;5072522;28;20017;-59
2022/10/21 05:40:31;;;;;;;72.85;41.08;;;2.20;99.90;;;;;;5072565;28;20372;-58
2022/10/21 05:42:57;;;;;;;74.95;39.17;;;2.30;99.90;;;;;;5072563;28;20027;-58
2022/10/21 05:45:22;;;;;;;85.43;44.97;;;2.40;99.90;;;;;;5072226;28;20036;-57
2022/10/21 05:47:48;;;;;;;87.95;46.13;;;2.40;99.90;;;;;;5072383;28;20040;-58
2022/10/21 05:50:14;;;;;;;87.45;46.90;;;2.50;99.90;;;;;;5054271;28;20058;-60
2022/10/21 05:52:39;;;;;;;90.57;45.65;;;2.60;99.90;;;;;;5072344;28;20028;-58
2022/10/21 05:55:07;;;;;;;83.20;43.30;;;2.60;99.90;;;;;;5072085;28;20464;-59
2022/10/21 05:57:35;;;;;;;90.60;43.50;;;2.60;99.90;;;;;;5072135;28;20032;-60
2022/10/21 06:00:01;;;;;;;93.75;45.83;;;2.60;99.90;;;;;;5051203;28;20507;-58
2022/10/21 06:02:26;;;;;;;84.55;43.85;;;2.60;99.90;;;;;;5052312;28;20031;-59
2022/10/21 06:04:52;;;;;;;77.50;42.25;;;2.60;99.90;;;;;;5051863;28;20029;-58
2022/10/21 06:07:18;;;;;;;79.88;41.85;;;2.70;99.90;;;;;;5052097;28;20384;-58
2022/10/21 06:09:43;;;;;;;68.30;37.15;;;2.60;99.90;;;;;;5052142;28;20044;-59
2022/10/21 06:12:09;;;;;;;68.03;38.47;;;2.60;99.90;;;;;;5051756;28;20033;-60
2022/10/21 06:14:35;;;;;;;66.30;37.63;;;2.60;99.90;;;;;;5052007;28;20040;-58
2022/10/21 06:17:02;;;;;;;72.13;39.40;;;2.70;99.90;;;;;;5051824;28;20468;-58
2022/10/21 06:19:28;;;;;;;74.40;37.15;;;2.60;99.90;;;;;;5051701;28;20063;-59
2022/10/21 06:21:53;;;;;;;70.03;38.85;;;2.70;99.90;;;;;;5051904;28;20068;-58
2022/10/21 06:24:19;;;;;;;69.22;37.00;;;2.70;99.90;;;;;;5051858;28;20021;-59
2022/10/21 06:26:45;;;;;;;70.80;37.22;;;2.80;99.90;;;;;;5051879;28;20389;-58
2022/10/21 06:29:11;;;;;;;67.72;37.67;;;2.70;99.90;;;;;;5051605;28;20033;-58
2022/10/21 06:31:36;;;;;;;70.25;39.05;;;2.70;99.90;;;;;;5051583;28;20037;-59
2022/10/21 06:34:02;;;;;;;64.65;38.60;;;2.60;99.90;;;;;;5051784;28;20021;-59
2022/10/21 06:36:29;;;;;;;71.30;37.33;;;2.70;99.90;;;;;;5050771;28;20108;-59
2022/10/21 06:38:55;;;;;;;;;;;2.70;99.90;;;;;;5050811;28;20087;-58
2022/10/21 06:41:20;;;;;;;72.70;38.95;;;2.80;99.90;;;;;;5051167;28;19908;-57
2022/10/21 06:43:46;;;;;;;69.63;39.00;;;2.90;99.90;;;;;;5033448;28;20127;-61
2022/10/21 06:46:13;;;;;;;81.00;43.25;;;2.90;99.90;;;;;;5051492;28;20096;-60
2022/10/21 06:48:39;;;;;;;;;;;3.10;99.90;;;;;;5051847;28;20029;-58
2022/10/21 06:51:14;;;;;;;72.63;40.75;;;3.20;99.90;;;;;;5051144;28;20010;-59
2022/10/21 06:53:39;;;;;;;87.78;43.67;;;3.30;99.90;;;;;;5051155;28;20111;-59
2022/10/21 06:56:08;;;;;;;76.43;43.75;;;3.40;99.90;;;;;;5051099;28;20108;-58
2022/10/21 06:58:36;;;;;;;87.43;45.08;;;3.40;99.90;;;;;;5050994;28;20119;-60
2022/10/21 07:01:12;;;;;;;77.88;45.00;;;3.60;99.90;;;;;;5051012;28;20055;-60
2022/10/21 07:03:38;;;;;;;75.38;43.78;;;3.80;99.90;;;;;;5051094;28;20056;-58
2022/10/21 07:06:04;;;;;;;71.97;41.47;;;4.10;99.90;;;;;;5050826;28;20081;-59
2022/10/21 07:08:32;;;;;;;71.55;40.75;;;4.40;99.90;;;;;;5050918;28;20021;-58
2022/10/21 07:10:57;;;;;;;;;;;4.70;99.90;;;;;;5051599;28;20037;-58
2022/10/21 07:13:23;;;;;;;67.50;39.70;;;4.90;99.90;;;;;;5051072;28;20050;-58
2022/10/21 07:16:00;;;;;;;67.30;38.70;;;5.20;99.90;;;;;;5051020;28;20036;-58
2022/10/21 07:18:27;;;;;;;66.38;38.95;;;5.30;99.90;;;;;;5050823;28;20094;-59
2022/10/21 07:20:53;;;;;;;65.47;37.38;;;5.50;99.90;;;;;;5051121;28;20021;-57
2022/10/21 07:23:19;;;;;;;66.28;35.78;;;5.60;99.90;;;;;;5050772;28;20070;-59
2022/10/21 07:25:44;;;;;;;61.45;33.97;;;5.80;99.90;;;;;;5050640;28;20021;-59
2022/10/21 07:28:10;;;;;;;64.60;34.55;;;5.90;99.90;;;;;;5050600;28;20036;-58
2022/10/21 07:30:43;;;;;;;61.75;36.75;;;6.00;99.90;;;;;;5049314;28;20040;-59
2022/10/21 07:33:10;;;;;;;58.78;33.55;;;6.00;99.90;;;;;;5050683;28;20400;-60
2022/10/21 07:35:36;;;;;;;52.45;30.17;;;6.20;99.90;;;;;;5050586;28;20520;-60
2022/10/21 07:38:02;;;;;;;59.95;32.97;;;6.40;99.90;;;;;;5050796;28;20067;-60
2022/10/21 07:40:28;;;;;;;60.55;35.90;;;6.50;99.90;;;;;;5050530;28;20048;-60
2022/10/21 07:42:57;;;;;;;50.80;28.93;;;6.60;99.90;;;;;;5050569;28;20021;-59
2022/10/21 07:45:23;;;;;;;36.83;20.63;;;6.80;99.90;;;;;;5050451;28;20276;-58
2022/10/21 07:47:49;;;;;;;42.97;22.17;;;7.00;99.90;;;;;;5049564;28;20082;-60
2022/10/21 07:50:15;;;;;;;32.20;19.30;;;7.30;99.90;;;;;;5050350;28;20436;-61
2022/10/21 07:52:44;;;;;;;35.08;18.05;;;7.50;99.90;;;;;;5050474;28;20021;-60
2022/10/21 07:55:14;;;;;;;33.45;17.40;;;7.60;99.90;;;;;;5050414;28;20040;-61
2022/10/21 07:57:41;;;;;;;31.77;16.83;;;7.80;99.90;;;;;;5050210;28;20033;-59
2022/10/21 08:00:08;;;;;;;36.73;18.27;;;7.90;99.90;;;;;;5050047;28;20082;-60
2022/10/21 08:02:34;;;;;;;31.52;17.52;;;8.00;99.90;;;;;;5050070;28;20550;-61
2022/10/21 08:05:00;;;;;;;33.58;17.20;;;8.20;99.90;;;;;;5049844;28;20037;-61
2022/10/21 08:07:25;;;;;;;29.05;16.98;;;8.30;99.90;;;;;;5049688;28;20032;-60
2022/10/21 08:09:51;;;;;;;27.65;16.45;;;8.40;99.90;;;;;;5050201;28;20028;-60
2022/10/21 08:12:16;;;;;;;29.23;15.45;;;8.50;99.90;;;;;;5049950;28;20033;-61
2022/10/21 08:14:42;;;;;;;31.77;15.18;;;8.70;99.90;;;;;;5049883;28;20071;-60
2022/10/21 08:17:08;;;;;;;30.98;14.27;;;8.80;99.90;;;;;;5049623;28;20498;-57
2022/10/21 08:19:33;;;;;;;29.73;14.90;;;8.90;99.90;;;;;;5049831;28;20097;-58
2022/10/21 08:21:59;;;;;;;28.38;14.88;;;9.00;99.90;;;;;;5049659;28;20021;-60
2022/10/21 08:24:26;;;;;;;28.48;14.02;;;9.10;99.90;;;;;;5049672;28;20075;-59
2022/10/21 08:26:52;;;;;;;23.25;13.73;;;9.20;99.90;;;;;;5049608;28;20408;-61
2022/10/21 08:29:18;;;;;;;27.63;13.75;;;9.20;99.90;;;;;;5049798;28;20094;-60
2022/10/21 08:31:44;;;;;;;26.63;13.25;;;9.30;99.90;;;;;;5049675;28;20464;-60
2022/10/21 08:34:10;;;;;;;25.02;13.38;;;9.40;99.90;;;;;;5049375;28;20053;-61
2022/10/21 08:36:36;;;;;;;22.77;13.05;;;9.50;99.90;;;;;;5049650;28;20021;-60
2022/10/21 08:39:02;;;;;;;24.75;12.82;;;9.60;99.90;;;;;;5049370;28;20468;-60
2022/10/21 08:41:27;;;;;;;23.52;12.75;;;9.70;99.90;;;;;;5049517;28;20048;-60
2022/10/21 08:44:09;;;;;;;29.27;12.88;;;9.70;99.90;;;;;;5049423;28;20025;-60
2022/10/21 08:46:41;;;;;;;25.33;12.50;;;9.70;99.90;;;;;;5049585;28;20387;-58
2022/10/21 08:49:16;;;;;;;25.30;12.02;;;9.60;99.90;;;;;;5049288;28;20492;-58
2022/10/21 08:52:09;;;;;;;26.27;12.63;;;9.60;99.90;;;;;;5049464;28;20125;-61
2022/10/21 08:54:53;;;;;;;19.50;11.02;;;9.70;99.90;;;;;;5049510;28;20025;-59
2022/10/21 08:57:19;;;;;;;19.48;12.13;;;9.60;99.90;;;;;;5049475;28;20083;-57
2022/10/21 08:59:45;;;;;;;22.88;11.43;;;9.60;99.90;;;;;;5051533;28;20577;-58
2022/10/21 09:02:11;;;;;;;23.05;12.25;;;9.60;99.90;;;;;;5053231;28;20017;-59
2022/10/21 09:04:39;;;;;;;22.35;11.57;;;9.60;99.90;;;;;;5053279;28;20036;-59
2022/10/21 09:07:41;;;;;;;22.48;12.88;;;9.60;99.90;;;;;;5053124;28;20045;-60
2022/10/21 09:10:21;;;;;;;20.40;11.25;;;9.60;99.90;;;;;;5051793;28;20383;-61
2022/10/21 09:12:56;;;;;;;21.52;11.90;;;9.60;99.90;;;;;;5053241;28;20040;-59
2022/10/21 09:15:44;;;;;;;23.80;11.85;;;9.70;99.90;;;;;;5053270;28;20108;-60
2022/10/21 09:18:28;;;;;;;;;;;9.70;99.90;;;;;;5052083;28;20033;-61
2022/10/21 09:21:11;;;;;;;24.85;12.05;;;9.70;99.90;;;;;;5052858;28;19909;-59
2022/10/21 09:23:51;;;;;;;22.85;11.75;;;9.70;99.90;;;;;;5052946;28;20086;-60
2022/10/21 09:26:27;;;;;;;21.40;11.60;;;9.70;99.90;;;;;;5053115;28;20027;-60
2022/10/21 09:28:52;;;;;;;23.85;12.98;;;9.80;99.90;;;;;;5052804;28;20548;-59
2022/10/21 09:31:20;;;;;;;21.05;11.65;;;9.80;99.90;;;;;;5051412;28;20079;-60
2022/10/21 09:33:56;;;;;;;25.52;12.82;;;9.80;99.90;;;;;;5053043;28;20082;-60
2022/10/21 09:36:37;;;;;;;23.23;12.93;;;9.90;99.90;;;;;;5052520;28;20037;-60
2022/10/21 09:39:11;;;;;;;22.67;13.13;;;9.90;99.90;;;;;;5052686;28;20025;-58
2022/10/21 09:41:41;;;;;;;21.13;13.05;;;9.90;99.90;;;;;;5052786;28;20048;-59
2022/10/21 09:44:16;;;;;;;29.08;16.40;;;9.90;99.90;;;;;;5068025;28;20063;-59
2022/10/21 09:46:44;;;;;;;27.63;16.40;;;9.90;99.90;;;;;;5051274;28;20764;-58
2022/10/21 09:49:27;;;;;;;28.60;16.75;;;9.90;99.90;;;;;;5052822;28;20116;-60
2022/10/21 09:51:53;;;;;;;34.00;17.67;;;10.00;99.90;;;;;;5052606;28;20040;-57
2022/10/21 09:54:22;;;;;;;31.60;18.13;;;9.90;99.90;;;;;;5067656;28;20025;-58
2022/10/21 09:56:53;;;;;;;35.50;18.65;;;9.90;99.90;;;;;;5052229;28;20041;-58
2022/10/21 09:59:21;;;;;;;43.95;18.98;;;10.00;99.90;;;;;;5052299;28;20025;-57
2022/10/21 10:01:48;;;;;;;31.80;18.63;;;10.00;99.90;;;;;;5051972;28;20032;-58
2022/10/21 10:04:19;;;;;;;39.57;19.23;;;10.10;99.90;;;;;;5052010;28;20553;-58
2022/10/21 10:06:45;;;;;;;40.90;19.33;;;10.10;99.90;;;;;;5051770;28;20159;-59
2022/10/21 10:09:14;;;;;;;37.83;20.95;;;10.20;99.90;;;;;;5052054;28;20025;-59
2022/10/21 10:12:02;;;;;;;36.80;17.63;;;10.20;99.90;;;;;;5051198;28;20044;-58
2022/10/21 10:14:30;;;;;;;39.72;19.10;;;10.30;99.90;;;;;;5051949;28;20031;-58
2022/10/21 10:17:17;;;;;;;34.20;18.77;;;10.30;99.90;;;;;;5055126;28;20032;-55
2022/10/21 10:19:42;;;;;;;35.42;19.10;;;10.40;99.90;;;;;;5071712;28;20665;-56
2022/10/21 10:22:15;;;;;;;34.40;18.23;;;10.40;99.90;;;;;;5071757;28;20108;-57
2022/10/21 10:24:43;;;;;;;39.78;19.17;;;10.50;99.90;;;;;;5071674;28;20202;-57
2022/10/21 10:27:15;;;;;;;42.75;20.35;;;10.50;99.90;;;;;;5071674;28;20039;-58
2022/10/21 10:29:47;;;;;;;37.78;20.58;;;10.60;99.90;;;;;;5071642;28;20025;-56
2022/10/21 10:32:15;;;;;;;35.65;17.83;;;10.60;99.90;;;;;;5071509;28;20404;-57
2022/10/21 10:35:02;;;;;;;35.40;19.92;;;10.70;99.90;;;;;;5071555;28;20023;-57
2022/10/21 10:37:33;;;;;;;33.10;20.70;;;10.80;99.90;;;;;;5071580;28;20057;-60
2022/10/21 10:40:01;;;;;;;40.08;18.98;;;10.80;99.90;;;;;;5053330;28;20384;-57
2022/10/21 10:42:34;;;;;;;36.67;19.42;;;10.90;99.90;;;;;;5071406;28;20033;-59
2022/10/21 10:45:04;;;;;;;37.30;19.83;;;10.90;99.90;;;;;;5071477;28;20036;-57
2022/10/21 10:47:47;;;;;;;39.17;22.20;;;11.00;99.90;;;;;;5071312;28;20097;-59
2022/10/21 10:50:40;;;;;;;35.03;22.90;;;11.00;99.90;;;;;;5071289;28;20025;-58
2022/10/21 10:53:11;;;;;;;34.90;22.77;;;11.10;99.90;;;;;;5071197;28;20032;-59
2022/10/21 10:55:42;;;;;;;36.08;22.10;;;11.00;99.90;;;;;;5070913;28;20068;-59
2022/10/21 10:58:09;;;;;;;43.17;24.55;;;11.10;99.90;;;;;;5053052;28;20098;-60
2022/10/21 11:00:41;;;;;;;40.58;24.55;;;11.10;99.90;;;;;;5066431;28;20040;-59
2022/10/21 11:03:13;;;;;;;40.72;23.70;;;11.10;99.90;;;;;;5050957;28;20036;-58
2022/10/21 11:05:45;;;;;;;33.72;20.88;;;11.10;99.90;;;;;;5050924;28;20080;-56
2022/10/21 11:08:35;;;;;;;31.80;19.80;;;11.10;99.90;;;;;;5050854;28;20075;-59
2022/10/21 11:11:10;;;;;;;37.20;20.00;;;11.20;99.90;;;;;;5050955;28;20064;-58
2022/10/21 11:13:38;;;;;;;35.55;19.27;;;11.20;99.90;;;;;;5051200;28;20419;-58
2022/10/21 11:16:15;;;;;;;35.30;20.02;;;11.30;99.90;;;;;;5050742;28;20613;-58
2022/10/21 11:18:49;;;;;;;38.30;20.90;;;11.40;99.90;;;;;;5050884;28;20036;-60
2022/10/21 11:21:47;;;;;;;32.40;20.08;;;11.60;99.90;;;;;;5050663;28;20029;-59
2022/10/21 11:24:30;;;;;;;36.00;19.08;;;12.00;99.90;;;;;;5050454;28;20032;-57
2022/10/21 11:27:13;;;;;;;36.13;18.30;;;12.30;99.90;;;;;;5065908;28;20033;-58
2022/10/21 11:29:45;;;;;;;32.28;19.65;;;12.70;99.90;;;;;;5050502;28;20068;-59
2022/10/21 11:32:13;;;;;;;31.35;17.42;;;12.90;99.90;;;;;;5050326;28;20044;-59
2022/10/21 11:34:58;;;;;;;31.42;16.92;;;13.20;99.90;;;;;;5050339;28;20079;-57
2022/10/21 11:37:48;;;;;;;30.55;16.15;;;13.20;99.90;;;;;;5050042;28;20040;-59
2022/10/21 11:40:29;;;;;;;29.60;16.40;;;13.30;99.90;;;;;;5049911;28;20040;-60
2022/10/21 11:43:00;;;;;;;31.75;18.33;;;13.00;99.90;;;;;;5050212;28;20113;-59
2022/10/21 11:45:38;;;;;;;33.90;17.75;;;13.00;99.90;;;;;;5049969;28;20052;-58
2022/10/21 11:48:25;;;;;;;30.47;15.43;;;13.10;99.90;;;;;;5050444;28;20436;-59
2022/10/21 11:51:14;;;;;;;23.95;14.05;;;13.00;99.90;;;;;;5050116;28;20301;-58
2022/10/21 11:54:11;;;;;;;30.58;15.80;;;13.10;99.90;;;;;;5050146;28;20108;-58
2022/10/21 11:57:06;;;;;;;27.15;12.85;;;13.20;99.90;;;;;;5050329;28;20357;-59
2022/10/21 12:00:09;;;;;;;22.70;13.40;;;13.30;99.90;;;;;;5050233;28;20017;-59
2022/10/21 12:02:51;;;;;;;22.13;11.40;;;13.30;99.90;;;;;;5050148;28;20063;-59
2022/10/21 12:05:35;;;;;;;14.27;7.97;;;13.50;99.90;;;;;;5049837;28;20036;-59
2022/10/21 12:08:19;;;;;;;17.20;8.00;;;13.50;99.90;;;;;;5050006;28;20017;-59
2022/10/21 12:10:45;;;;;;;12.95;6.85;;;13.60;99.90;;;;;;5049519;28;20108;-59
2022/10/21 12:13:31;;;;;;;11.98;7.05;;;14.00;99.90;;;;;;5050116;28;20108;-59
2022/10/21 12:16:06;;;;;;;13.40;6.38;;;14.10;99.90;;;;;;5049834;28;20095;-58
2022/10/21 12:18:36;;;;;;;13.10;6.78;;;14.10;99.90;;;;;;5049809;28;20068;-60
2022/10/21 12:21:02;;;;;;;17.45;8.68;;;14.00;99.90;;;;;;5049639;28;20036;-58
2022/10/21 12:23:29;;;;;;;12.05;6.40;;;14.00;99.90;;;;;;5049899;28;20025;-59
2022/10/21 12:26:06;;;;;;;16.42;6.65;;;13.90;99.90;;;;;;5049598;28;20491;-58
2022/10/21 12:28:36;;;;;;;15.48;6.90;;;13.80;99.90;;;;;;5049742;28;20037;-57
2022/10/21 12:31:07;;;;;;;12.13;7.13;;;13.80;99.90;;;;;;5049784;28;20063;-59
2022/10/21 12:33:43;;;;;;;13.60;7.45;;;13.70;99.90;;;;;;5049032;28;20048;-60
2022/10/21 12:36:18;;;;;;;16.85;7.85;;;13.70;99.90;;;;;;5049920;28;20393;-57
2022/10/21 12:38:50;;;;;;;15.40;7.57;;;13.80;99.90;;;;;;5049360;28;20117;-59
2022/10/21 12:41:36;;;;;;;14.43;7.45;;;13.70;99.90;;;;;;5031820;28;20028;-58
2022/10/21 12:44:02;;;;;;;12.27;6.80;;;13.70;99.90;;;;;;5049792;28;20427;-59
2022/10/21 12:46:27;;;;;;;17.55;7.93;;;13.70;99.90;;;;;;5049503;28;20536;-58
2022/10/21 12:48:54;;;;;;;14.68;8.32;;;13.80;99.90;;;;;;5049339;28;20490;-58
2022/10/21 12:51:26;;;;;;;15.13;7.20;;;13.80;99.90;;;;;;5049492;28;20072;-59